Thunder radar more information blitzortung!


Radar de pluja more information rain snow radar


Visita la nostra xarxa de llocs de meteo:

Template documentation
and downloads

And another site



No particular awareness of the weather is required.    There are no Weather-warnings

Pagina Historial Weather Underground text

Diari Resum Juny 9, 2017 Unitats:  Tant    Imperial   Mètric
« Previous Dia
SegĂźent Dia »
Diari Setmana Mensual Anual Personalitzada
  Maxima: Minima: Media:
Temperatura: 86.2 °F /  30.1 °C 61.5 °F /  16.4 °C 74.1 °F /  23.4 °C
Punt de rosada: 64.9 °F /  18.3 °C 54.7 °F /  12.6 °C 59.7 °F /  15.4 °C
Humitat: 90 % 42 % 63 %
Wind Speed: 12.7 mph /  20.4 km/h - 3.5 mph /  5.6 km/h
RĂ fegues de vent: 12.7 mph /  20.4 km/h - -
Vent:- - SSE
Pression baro: 30.1 in /  1018.8 hPa 29.9 in /  1013.8 hPa -
Precipitacions: 0 in /  0.0 mm    
Historical Graphs
 
 
Dades de taula per Juny 9, 2017
Temps Temperatura Punt de rosada Pression baro Vent Wind Speed RĂ fegues de vent Humitat Rainfall Rate (Hourly)
00:01 65.1 °F /  18.4 °C 58.1 °F /  14.5 °C 30 in /  1015.8 hPa SW 3.5 mph /  5.6 km/h 3.5 mph /  5.6 km/h 78 % 0 in /  0.0 mm
00:05 62.8 °F /  17.1 °C 57.2 °F /  14.0 °C 30 in /  1015.8 hPa WSW 2 mph /  3.2 km/h 2 mph /  3.2 km/h 82 % 0 in /  0.0 mm
00:06 65.1 °F /  18.4 °C 58.5 °F /  14.7 °C 30 in /  1015.8 hPa SW 2.3 mph /  3.7 km/h 2.9 mph /  4.7 km/h 79 % 0 in /  0.0 mm
00:11 65.1 °F /  18.4 °C 58.5 °F /  14.7 °C 30 in /  1015.8 hPa SW 2.4 mph /  3.9 km/h 2.4 mph /  3.9 km/h 79 % 0 in /  0.0 mm
00:15 62.6 °F /  17.0 °C 57 °F /  13.9 °C 30 in /  1015.8 hPa Calm   3 mph /  4.8 km/h 82 % 0 in /  0.0 mm
00:16 65.1 °F /  18.4 °C 58.5 °F /  14.7 °C 30 in /  1015.8 hPa WSW 2.3 mph /  3.7 km/h 2.3 mph /  3.7 km/h 79 % 0 in /  0.0 mm
00:21 65.1 °F /  18.4 °C 58.5 °F /  14.7 °C 30 in /  1015.8 hPa West 2.3 mph /  3.7 km/h 2.3 mph /  3.7 km/h 79 % 0 in /  0.0 mm
00:25 63 °F /  17.2 °C 57.4 °F /  14.1 °C 30 in /  1015.8 hPa WNW 2 mph /  3.2 km/h 4 mph /  6.4 km/h 82 % 0 in /  0.0 mm
00:26 65.1 °F /  18.4 °C 58.8 °F /  14.9 °C 30 in /  1015.8 hPa WSW 2.3 mph /  3.7 km/h 2.3 mph /  3.7 km/h 80 % 0 in /  0.0 mm
00:35 63.1 °F /  17.3 °C 57.2 °F /  14.0 °C 30 in /  1015.8 hPa SE 2 mph /  3.2 km/h 4 mph /  6.4 km/h 81 % 0 in /  0.0 mm
00:45 62.8 °F /  17.1 °C 57.2 °F /  14.0 °C 30 in /  1015.8 hPa South 2 mph /  3.2 km/h 4 mph /  6.4 km/h 82 % 0 in /  0.0 mm
00:55 62.4 °F /  16.9 °C 57.6 °F /  14.2 °C 30 in /  1015.8 hPa SE 1 mph /  1.6 km/h 2 mph /  3.2 km/h 84 % 0 in /  0.0 mm
01:05 62.2 °F /  16.8 °C 57.7 °F /  14.3 °C 30 in /  1014.8 hPa ESE 2 mph /  3.2 km/h 2 mph /  3.2 km/h 85 % 0 in /  0.0 mm
01:15 62.1 °F /  16.7 °C 57.2 °F /  14.0 °C 30 in /  1014.8 hPa East 3 mph /  4.8 km/h 6 mph /  9.7 km/h 84 % 0 in /  0.0 mm
01:25 62.1 °F /  16.7 °C 57.7 °F /  14.3 °C 30 in /  1015.8 hPa NE 1 mph /  1.6 km/h 4 mph /  6.4 km/h 86 % 0 in /  0.0 mm
01:45 62.1 °F /  16.7 °C 57.7 °F /  14.3 °C 30 in /  1014.8 hPa ENE 2 mph /  3.2 km/h 4 mph /  6.4 km/h 86 % 0 in /  0.0 mm
01:55 62.1 °F /  16.7 °C 58.5 °F /  14.7 °C 30 in /  1016.8 hPa Calm   3 mph /  4.8 km/h 88 % 0 in /  0.0 mm
02:05 62.1 °F /  16.7 °C 58.5 °F /  14.7 °C 30 in /  1015.8 hPa South 1 mph /  1.6 km/h 2 mph /  3.2 km/h 88 % 0 in /  0.0 mm
02:15 62.6 °F /  17.0 °C 58.6 °F /  14.8 °C 30 in /  1015.8 hPa North 2 mph /  3.2 km/h 5 mph /  8.0 km/h 87 % 0 in /  0.0 mm
02:25 62.4 °F /  16.9 °C 59.2 °F /  15.1 °C 30.1 in /  1017.8 hPa NW 2 mph /  3.2 km/h 2 mph /  3.2 km/h 89 % 0 in /  0.0 mm
02:35 62.4 °F /  16.9 °C 59.2 °F /  15.1 °C 30 in /  1015.8 hPa SSW 2 mph /  3.2 km/h 3 mph /  4.8 km/h 89 % 0 in /  0.0 mm
02:45 62.2 °F /  16.8 °C 58.6 °F /  14.8 °C 30 in /  1015.8 hPa SSW 3 mph /  4.8 km/h 4 mph /  6.4 km/h 88 % 0 in /  0.0 mm
02:55 62.1 °F /  16.7 °C 58.5 °F /  14.7 °C 30 in /  1016.8 hPa SW 2 mph /  3.2 km/h 4 mph /  6.4 km/h 88 % 0 in /  0.0 mm
03:05 62.1 °F /  16.7 °C 59.2 °F /  15.1 °C 30 in /  1016.8 hPa WSW 2 mph /  3.2 km/h 3 mph /  4.8 km/h 90 % 0 in /  0.0 mm
03:15 62.4 °F /  16.9 °C 59.4 °F /  15.2 °C 30 in /  1016.8 hPa North 3 mph /  4.8 km/h 3 mph /  4.8 km/h 90 % 0 in /  0.0 mm
03:25 62.4 °F /  16.9 °C 59.4 °F /  15.2 °C 30.1 in /  1017.8 hPa NNE 2 mph /  3.2 km/h 3 mph /  4.8 km/h 90 % 0 in /  0.0 mm
03:35 62.6 °F /  17.0 °C 59.5 °F /  15.3 °C 30.1 in /  1017.8 hPa NE 1 mph /  1.6 km/h 2 mph /  3.2 km/h 90 % 0 in /  0.0 mm
03:45 63.3 °F /  17.4 °C 60.3 °F /  15.7 °C 30.1 in /  1017.8 hPa NNE 2 mph /  3.2 km/h 3 mph /  4.8 km/h 90 % 0 in /  0.0 mm
03:55 64.2 °F /  17.9 °C 61.2 °F /  16.2 °C 30.1 in /  1017.8 hPa ENE 1 mph /  1.6 km/h 2 mph /  3.2 km/h 90 % 0 in /  0.0 mm
04:05 64.4 °F /  18.0 °C 61.2 °F /  16.2 °C 30.1 in /  1017.8 hPa SSE 1 mph /  1.6 km/h 3 mph /  4.8 km/h 89 % 0 in /  0.0 mm
04:15 64.2 °F /  17.9 °C 61 °F /  16.1 °C 30.1 in /  1017.8 hPa SW 2 mph /  3.2 km/h 3 mph /  4.8 km/h 89 % 0 in /  0.0 mm
04:25 65.8 °F /  18.8 °C 62.4 °F /  16.9 °C 30 in /  1016.8 hPa Calm   2 mph /  3.2 km/h 89 % 0 in /  0.0 mm
04:35 67.3 °F /  19.6 °C 63.7 °F /  17.6 °C 30.1 in /  1017.8 hPa SSW 1 mph /  1.6 km/h 3 mph /  4.8 km/h 88 % 0 in /  0.0 mm
04:45 67.6 °F /  19.8 °C 63 °F /  17.2 °C 30.1 in /  1017.8 hPa SSW 1 mph /  1.6 km/h 2 mph /  3.2 km/h 85 % 0 in /  0.0 mm
09:47 68 °F /  20.0 °C 63.3 °F /  17.4 °C 30.1 in /  1017.8 hPa SSE 2.3 mph /  3.7 km/h 2.3 mph /  3.7 km/h 85 % 0 in /  0.0 mm
09:52 68.2 °F /  20.1 °C 63.1 °F /  17.3 °C 30.1 in /  1017.8 hPa Calm     84 % 0 in /  0.0 mm
09:57 68.5 °F /  20.3 °C 63.1 °F /  17.3 °C 30.1 in /  1017.8 hPa South 1.2 mph /  1.9 km/h   83 % 0 in /  0.0 mm
10:02 69.4 °F /  20.8 °C 64 °F /  17.8 °C 30.1 in /  1017.8 hPa South 3.5 mph /  5.6 km/h 3.5 mph /  5.6 km/h 83 % 0 in /  0.0 mm
10:03 69.3 °F /  20.7 °C 63.5 °F /  17.5 °C 30.1 in /  1017.8 hPa SSE 2.6 mph /  4.2 km/h 2.6 mph /  4.2 km/h 82 % 0 in /  0.0 mm
10:08 69.6 °F /  20.9 °C 63.5 °F /  17.5 °C 30.1 in /  1017.8 hPa ESE 2.3 mph /  3.7 km/h 2.3 mph /  3.7 km/h 81 % 0 in /  0.0 mm
10:13 70.5 °F /  21.4 °C 63.7 °F /  17.6 °C 30.1 in /  1017.8 hPa ENE 1.2 mph /  1.9 km/h   79 % 0 in /  0.0 mm
10:18 71.4 °F /  21.9 °C 64.2 °F /  17.9 °C 30.1 in /  1017.8 hPa SW 2.3 mph /  3.7 km/h 2.3 mph /  3.7 km/h 78 % 0 in /  0.0 mm
10:23 71.8 °F /  22.1 °C 64.2 °F /  17.9 °C 30.1 in /  1017.8 hPa SSW 2.3 mph /  3.7 km/h 2.3 mph /  3.7 km/h 77 % 0 in /  0.0 mm
10:28 71.8 °F /  22.1 °C 63.3 °F /  17.4 °C 30.1 in /  1017.8 hPa East 3.5 mph /  5.6 km/h 3.5 mph /  5.6 km/h 75 % 0 in /  0.0 mm
10:33 72.5 °F /  22.5 °C 64 °F /  17.8 °C 30.1 in /  1017.8 hPa WSW 2.3 mph /  3.7 km/h 2.3 mph /  3.7 km/h 75 % 0 in /  0.0 mm
10:38 73.2 °F /  22.9 °C 64.8 °F /  18.2 °C 30.1 in /  1017.8 hPa ESE 2.3 mph /  3.7 km/h 2.3 mph /  3.7 km/h 75 % 0 in /  0.0 mm
10:43 74.1 °F /  23.4 °C 64.6 °F /  18.1 °C 30.1 in /  1017.8 hPa SSW 4.6 mph /  7.4 km/h 4.6 mph /  7.4 km/h 72 % 0 in /  0.0 mm
10:48 74.7 °F /  23.7 °C 64.9 °F /  18.3 °C 30.1 in /  1017.8 hPa ESE 2.3 mph /  3.7 km/h 2.3 mph /  3.7 km/h 72 % 0 in /  0.0 mm
10:53 74.7 °F /  23.7 °C 64.6 °F /  18.1 °C 30.1 in /  1017.8 hPa ESE 2.9 mph /  4.7 km/h 2.9 mph /  4.7 km/h 71 % 0 in /  0.0 mm
10:59 74.8 °F /  23.8 °C 64.4 °F /  18.0 °C 30.1 in /  1017.8 hPa East 2.3 mph /  3.7 km/h 2.3 mph /  3.7 km/h 70 % 0 in /  0.0 mm
11:04 75.2 °F /  24.0 °C 64.2 °F /  17.9 °C 30.1 in /  1017.8 hPa SW 1.6 mph /  2.6 km/h 1.6 mph /  2.6 km/h 69 % 0 in /  0.0 mm
11:09 75.9 °F /  24.4 °C 64.6 °F /  18.1 °C 30.1 in /  1017.8 hPa ENE 3.6 mph /  5.8 km/h 3.6 mph /  5.8 km/h 68 % 0 in /  0.0 mm
11:14 75 °F /  23.9 °C 63.3 °F /  17.4 °C 30.1 in /  1017.8 hPa South 5.8 mph /  9.3 km/h 5.8 mph /  9.3 km/h 67 % 0 in /  0.0 mm
11:19 76.5 °F /  24.7 °C 63.9 °F /  17.7 °C 30.1 in /  1017.8 hPa SE 2.3 mph /  3.7 km/h 2.3 mph /  3.7 km/h 65 % 0 in /  0.0 mm
11:24 77.5 °F /  25.3 °C 64.4 °F /  18.0 °C 30.1 in /  1017.8 hPa SE 3.3 mph /  5.3 km/h 3.3 mph /  5.3 km/h 64 % 0 in /  0.0 mm
11:29 76.8 °F /  24.9 °C 64.2 °F /  17.9 °C 30.1 in /  1017.8 hPa SW 4.6 mph /  7.4 km/h 4.6 mph /  7.4 km/h 65 % 0 in /  0.0 mm
11:34 77 °F /  25.0 °C 62.4 °F /  16.9 °C 30.1 in /  1017.8 hPa SW 4.6 mph /  7.4 km/h 4.6 mph /  7.4 km/h 61 % 0 in /  0.0 mm
11:37 77.5 °F /  25.3 °C 62.6 °F /  17.0 °C 30.1 in /  1017.8 hPa SW 2.3 mph /  3.7 km/h 2.3 mph /  3.7 km/h 60 % 0 in /  0.0 mm
11:42 78.1 °F /  25.6 °C 63.1 °F /  17.3 °C 30.1 in /  1017.8 hPa SSW 3.8 mph /  6.1 km/h 3.8 mph /  6.1 km/h 60 % 0 in /  0.0 mm
11:47 77.9 °F /  25.5 °C 63 °F /  17.2 °C 30.1 in /  1017.8 hPa SSW 6.9 mph /  11.1 km/h 6.9 mph /  11.1 km/h 60 % 0 in /  0.0 mm
11:52 78.1 °F /  25.6 °C 62.1 °F /  16.7 °C 30.1 in /  1017.8 hPa SW 5.8 mph /  9.3 km/h 5.8 mph /  9.3 km/h 58 % 0 in /  0.0 mm
11:57 78.3 °F /  25.7 °C 61.9 °F /  16.6 °C 30.1 in /  1017.8 hPa SSW 5.8 mph /  9.3 km/h 5.8 mph /  9.3 km/h 57 % 0 in /  0.0 mm
12:02 77.7 °F /  25.4 °C 60.8 °F /  16.0 °C 30 in /  1016.8 hPa SSW 5.8 mph /  9.3 km/h 5.8 mph /  9.3 km/h 56 % 0 in /  0.0 mm
12:07 77.5 °F /  25.3 °C 60.6 °F /  15.9 °C 30 in /  1016.8 hPa SW 6.9 mph /  11.1 km/h 6.9 mph /  11.1 km/h 56 % 0 in /  0.0 mm
12:12 77.7 °F /  25.4 °C 60.8 °F /  16.0 °C 30 in /  1016.8 hPa SW 6.9 mph /  11.1 km/h 6.9 mph /  11.1 km/h 56 % 0 in /  0.0 mm
12:17 78.1 °F /  25.6 °C 60.6 °F /  15.9 °C 30.1 in /  1017.8 hPa SSW 5.8 mph /  9.3 km/h 5.8 mph /  9.3 km/h 55 % 0 in /  0.0 mm
12:22 78.6 °F /  25.9 °C 61.2 °F /  16.2 °C 30.1 in /  1017.8 hPa SW 3.5 mph /  5.6 km/h 3.5 mph /  5.6 km/h 55 % 0 in /  0.0 mm
12:27 79.7 °F /  26.5 °C 62.1 °F /  16.7 °C 30.1 in /  1017.8 hPa SSW 3.5 mph /  5.6 km/h 3.5 mph /  5.6 km/h 55 % 0 in /  0.0 mm
12:32 79.7 °F /  26.5 °C 62.1 °F /  16.7 °C 30 in /  1015.8 hPa SW 3.5 mph /  5.6 km/h 3.5 mph /  5.6 km/h 55 % 0 in /  0.0 mm
12:37 81 °F /  27.2 °C 62.8 °F /  17.1 °C 30 in /  1015.8 hPa WSW 4.6 mph /  7.4 km/h 4.6 mph /  7.4 km/h 54 % 0 in /  0.0 mm
12:42 82 °F /  27.8 °C 63.1 °F /  17.3 °C 30 in /  1015.8 hPa SSW 1.6 mph /  2.6 km/h 1.6 mph /  2.6 km/h 53 % 0 in /  0.0 mm
12:47 81 °F /  27.2 °C 61.7 °F /  16.5 °C 30 in /  1015.8 hPa West 5.8 mph /  9.3 km/h 5.8 mph /  9.3 km/h 52 % 0 in /  0.0 mm
12:52 81.5 °F /  27.5 °C 62.2 °F /  16.8 °C 30 in /  1015.8 hPa SW 3.1 mph /  5.0 km/h 3.1 mph /  5.0 km/h 52 % 0 in /  0.0 mm
12:57 81.5 °F /  27.5 °C 61.5 °F /  16.4 °C 30 in /  1015.8 hPa SW 3.5 mph /  5.6 km/h 3.5 mph /  5.6 km/h 51 % 0 in /  0.0 mm
13:02 82 °F /  27.8 °C 62.1 °F /  16.7 °C 30 in /  1016.8 hPa SW 4.6 mph /  7.4 km/h 4.6 mph /  7.4 km/h 51 % 0 in /  0.0 mm
13:07 82.2 °F /  27.9 °C 61.7 °F /  16.5 °C 30 in /  1016.8 hPa WSW 5.8 mph /  9.3 km/h 5.8 mph /  9.3 km/h 50 % 0 in /  0.0 mm
13:12 82.6 °F /  28.1 °C 62.1 °F /  16.7 °C 30 in /  1016.8 hPa SW 4.6 mph /  7.4 km/h 4.6 mph /  7.4 km/h 50 % 0 in /  0.0 mm
13:17 82.4 °F /  28.0 °C 61.3 °F /  16.3 °C 30 in /  1015.8 hPa West 2.3 mph /  3.7 km/h 2.3 mph /  3.7 km/h 49 % 0 in /  0.0 mm
13:22 82.4 °F /  28.0 °C 60.6 °F /  15.9 °C 30 in /  1015.8 hPa SSW 5.8 mph /  9.3 km/h 5.8 mph /  9.3 km/h 48 % 0 in /  0.0 mm
13:27 82.6 °F /  28.1 °C 61 °F /  16.1 °C 30 in /  1015.8 hPa ENE 3.5 mph /  5.6 km/h 3.5 mph /  5.6 km/h 48 % 0 in /  0.0 mm
13:32 82.9 °F /  28.3 °C 60.6 °F /  15.9 °C 30 in /  1015.8 hPa SW 4.6 mph /  7.4 km/h 4.6 mph /  7.4 km/h 47 % 0 in /  0.0 mm
13:37 82.9 °F /  28.3 °C 61.2 °F /  16.2 °C 30 in /  1015.8 hPa SW 3.5 mph /  5.6 km/h 3.5 mph /  5.6 km/h 48 % 0 in /  0.0 mm
13:42 84 °F /  28.9 °C 61.5 °F /  16.4 °C 30 in /  1015.8 hPa WSW 2.4 mph /  3.9 km/h 2.4 mph /  3.9 km/h 47 % 0 in /  0.0 mm
13:47 83.8 °F /  28.8 °C 61.5 °F /  16.4 °C 30 in /  1015.8 hPa West 5.8 mph /  9.3 km/h 5.8 mph /  9.3 km/h 47 % 0 in /  0.0 mm
13:52 85.1 °F /  29.5 °C 62.6 °F /  17.0 °C 30 in /  1015.8 hPa SW 5.4 mph /  8.7 km/h 5.4 mph /  8.7 km/h 47 % 0 in /  0.0 mm
13:57 82.9 °F /  28.3 °C 60.1 °F /  15.6 °C 30 in /  1015.8 hPa South 4.6 mph /  7.4 km/h 4.6 mph /  7.4 km/h 46 % 0 in /  0.0 mm
14:02 82.9 °F /  28.3 °C 60.6 °F /  15.9 °C 30 in /  1014.8 hPa WSW 4.6 mph /  7.4 km/h 4.6 mph /  7.4 km/h 47 % 0 in /  0.0 mm
14:07 82.8 °F /  28.2 °C 61.2 °F /  16.2 °C 30 in /  1014.8 hPa ESE 5.9 mph /  9.5 km/h 5.9 mph /  9.5 km/h 48 % 0 in /  0.0 mm
14:12 81.9 °F /  27.7 °C 60.8 °F /  16.0 °C 30 in /  1014.8 hPa NNE 4.6 mph /  7.4 km/h 4.6 mph /  7.4 km/h 49 % 0 in /  0.0 mm
14:17 82.4 °F /  28.0 °C 61.3 °F /  16.3 °C 30 in /  1015.8 hPa ESE 3.8 mph /  6.1 km/h 3.8 mph /  6.1 km/h 49 % 0 in /  0.0 mm
14:22 83.7 °F /  28.7 °C 62.4 °F /  16.9 °C 30 in /  1015.8 hPa South 3.8 mph /  6.1 km/h 3.8 mph /  6.1 km/h 49 % 0 in /  0.0 mm
14:23 83.7 °F /  28.7 °C 62.4 °F /  16.9 °C 30 in /  1015.8 hPa South 4.7 mph /  7.6 km/h 4.7 mph /  7.6 km/h 49 % 0 in /  0.0 mm
14:28 84.2 °F /  29.0 °C 62.4 °F /  16.9 °C 30 in /  1015.8 hPa SSW 3.5 mph /  5.6 km/h 3.5 mph /  5.6 km/h 48 % 0 in /  0.0 mm
14:33 85.5 °F /  29.7 °C 63.5 °F /  17.5 °C 30 in /  1015.8 hPa SE 3.5 mph /  5.6 km/h 3.5 mph /  5.6 km/h 48 % 0 in /  0.0 mm
14:38 85.8 °F /  29.9 °C 63.9 °F /  17.7 °C 30 in /  1015.8 hPa West 3.5 mph /  5.6 km/h 3.5 mph /  5.6 km/h 48 % 0 in /  0.0 mm
14:43 85.8 °F /  29.9 °C 63.3 °F /  17.4 °C 30 in /  1015.8 hPa SE 4 mph /  6.4 km/h 4 mph /  6.4 km/h 47 % 0 in /  0.0 mm
14:48 86.2 °F /  30.1 °C 63 °F /  17.2 °C 30 in /  1015.8 hPa West 5.4 mph /  8.7 km/h 5.4 mph /  8.7 km/h 46 % 0 in /  0.0 mm
14:53 85.6 °F /  29.8 °C 62.4 °F /  16.9 °C 30 in /  1015.8 hPa South 6.9 mph /  11.1 km/h 6.9 mph /  11.1 km/h 46 % 0 in /  0.0 mm
14:58 85.1 °F /  29.5 °C 60.6 °F /  15.9 °C 30 in /  1015.8 hPa ESE 4.6 mph /  7.4 km/h 4.6 mph /  7.4 km/h 44 % 0 in /  0.0 mm
15:03 82.8 °F /  28.2 °C 61.5 °F /  16.4 °C 30 in /  1015.8 hPa ESE 5.8 mph /  9.3 km/h 5.8 mph /  9.3 km/h 49 % 0 in /  0.0 mm
15:08 82.4 °F /  28.0 °C 61.9 °F /  16.6 °C 30 in /  1015.8 hPa SE 5.8 mph /  9.3 km/h 5.8 mph /  9.3 km/h 50 % 0 in /  0.0 mm
15:13 83.5 °F /  28.6 °C 62.2 °F /  16.8 °C 30 in /  1015.8 hPa SSE 12.7 mph /  20.4 km/h 12.7 mph /  20.4 km/h 49 % 0 in /  0.0 mm
15:18 84.6 °F /  29.2 °C 61.5 °F /  16.4 °C 30 in /  1015.8 hPa South 2.3 mph /  3.7 km/h 2.3 mph /  3.7 km/h 46 % 0 in /  0.0 mm
15:23 85.3 °F /  29.6 °C 61.5 °F /  16.4 °C 30 in /  1015.8 hPa South 5.8 mph /  9.3 km/h 5.8 mph /  9.3 km/h 45 % 0 in /  0.0 mm
15:28 84.6 °F /  29.2 °C 61.5 °F /  16.4 °C 30 in /  1015.8 hPa NNE 5.8 mph /  9.3 km/h 5.8 mph /  9.3 km/h 46 % 0 in /  0.0 mm
15:33 84.2 °F /  29.0 °C 61.2 °F /  16.2 °C 30 in /  1015.8 hPa West 3.5 mph /  5.6 km/h 3.5 mph /  5.6 km/h 46 % 0 in /  0.0 mm
15:38 85.1 °F /  29.5 °C 60.6 °F /  15.9 °C 30 in /  1015.8 hPa SE 3.5 mph /  5.6 km/h 3.5 mph /  5.6 km/h 44 % 0 in /  0.0 mm
15:43 85.1 °F /  29.5 °C 59.4 °F /  15.2 °C 30 in /  1015.8 hPa SSE 3.5 mph /  5.6 km/h 3.5 mph /  5.6 km/h 42 % 0 in /  0.0 mm
15:48 85.1 °F /  29.5 °C 60.1 °F /  15.6 °C 30 in /  1015.8 hPa SSE 5.4 mph /  8.7 km/h 5.4 mph /  8.7 km/h 43 % 0 in /  0.0 mm
15:53 83.7 °F /  28.7 °C 61.3 °F /  16.3 °C 30 in /  1015.8 hPa ESE 5.8 mph /  9.3 km/h 5.8 mph /  9.3 km/h 47 % 0 in /  0.0 mm
15:58 83.5 °F /  28.6 °C 61.2 °F /  16.2 °C 30 in /  1015.8 hPa SSW 5.8 mph /  9.3 km/h 5.8 mph /  9.3 km/h 47 % 0 in /  0.0 mm
16:03 82.8 °F /  28.2 °C 61.2 °F /  16.2 °C 30 in /  1015.8 hPa NNE 3.5 mph /  5.6 km/h 3.5 mph /  5.6 km/h 48 % 0 in /  0.0 mm
16:08 82 °F /  27.8 °C 61 °F /  16.1 °C 30 in /  1015.8 hPa SE 9.2 mph /  14.8 km/h 9.2 mph /  14.8 km/h 49 % 0 in /  0.0 mm
16:13 82.8 °F /  28.2 °C 60.4 °F /  15.8 °C 30 in /  1015.8 hPa NW 6.9 mph /  11.1 km/h 6.9 mph /  11.1 km/h 47 % 0 in /  0.0 mm
16:18 83.7 °F /  28.7 °C 60.6 °F /  15.9 °C 30 in /  1015.8 hPa West 5.9 mph /  9.5 km/h 5.9 mph /  9.5 km/h 46 % 0 in /  0.0 mm
16:23 83.7 °F /  28.7 °C 60.1 °F /  15.6 °C 30 in /  1015.8 hPa SE 3.8 mph /  6.1 km/h 3.8 mph /  6.1 km/h 45 % 0 in /  0.0 mm
16:28 82.4 °F /  28.0 °C 60.1 °F /  15.6 °C 30 in /  1015.8 hPa SSE 8.1 mph /  13.0 km/h 8.1 mph /  13.0 km/h 47 % 0 in /  0.0 mm
16:33 83.1 °F /  28.4 °C 61.3 °F /  16.3 °C 30 in /  1015.8 hPa SW 5.8 mph /  9.3 km/h 5.8 mph /  9.3 km/h 48 % 0 in /  0.0 mm
16:38 84 °F /  28.9 °C 61 °F /  16.1 °C 30 in /  1015.8 hPa SSW 4.6 mph /  7.4 km/h 4.6 mph /  7.4 km/h 46 % 0 in /  0.0 mm
16:43 84.2 °F /  29.0 °C 59.9 °F /  15.5 °C 30 in /  1015.8 hPa East 5.8 mph /  9.3 km/h 5.8 mph /  9.3 km/h 44 % 0 in /  0.0 mm
16:48 82.8 °F /  28.2 °C 60.4 °F /  15.8 °C 30 in /  1015.8 hPa SSW 4.6 mph /  7.4 km/h 4.6 mph /  7.4 km/h 47 % 0 in /  0.0 mm
16:53 83.3 °F /  28.5 °C 61 °F /  16.1 °C 30 in /  1015.8 hPa South 3.5 mph /  5.6 km/h 3.5 mph /  5.6 km/h 47 % 0 in /  0.0 mm
16:58 84.2 °F /  29.0 °C 60.6 °F /  15.9 °C 30 in /  1015.8 hPa WSW 6.2 mph /  10.0 km/h 6.2 mph /  10.0 km/h 45 % 0 in /  0.0 mm
16:59 84.2 °F /  29.0 °C 60.6 °F /  15.9 °C 30 in /  1015.8 hPa SW 5.8 mph /  9.3 km/h 5.8 mph /  9.3 km/h 45 % 0 in /  0.0 mm
17:04 84.4 °F /  29.1 °C 60.6 °F /  15.9 °C 30 in /  1015.8 hPa SSW 9.2 mph /  14.8 km/h 9.2 mph /  14.8 km/h 45 % 0 in /  0.0 mm
17:09 83.7 °F /  28.7 °C 60.6 °F /  15.9 °C 30 in /  1015.8 hPa WSW 5.4 mph /  8.7 km/h 5.4 mph /  8.7 km/h 46 % 0 in /  0.0 mm
17:14 82.9 °F /  28.3 °C 59.4 °F /  15.2 °C 30 in /  1015.8 hPa SW 8.1 mph /  13.0 km/h 8.1 mph /  13.0 km/h 45 % 0 in /  0.0 mm
17:19 82.9 °F /  28.3 °C 59.4 °F /  15.2 °C 30 in /  1015.8 hPa West 3.5 mph /  5.6 km/h 3.5 mph /  5.6 km/h 45 % 0 in /  0.0 mm
17:24 83.5 °F /  28.6 °C 59.9 °F /  15.5 °C 30 in /  1015.8 hPa SSW 7.1 mph /  11.4 km/h 7.1 mph /  11.4 km/h 45 % 0 in /  0.0 mm
17:29 82.9 °F /  28.3 °C 59.4 °F /  15.2 °C 30 in /  1015.8 hPa West 3.6 mph /  5.8 km/h 3.6 mph /  5.8 km/h 45 % 0 in /  0.0 mm
17:34 83.3 °F /  28.5 °C 59.7 °F /  15.4 °C 30 in /  1015.8 hPa West 5.6 mph /  9.0 km/h 5.6 mph /  9.0 km/h 45 % 0 in /  0.0 mm
17:39 82.6 °F /  28.1 °C 59.2 °F /  15.1 °C 30 in /  1015.8 hPa SSE 6.9 mph /  11.1 km/h 6.9 mph /  11.1 km/h 45 % 0 in /  0.0 mm
17:44 83.3 °F /  28.5 °C 59.7 °F /  15.4 °C 30 in /  1015.8 hPa SW 5.9 mph /  9.5 km/h 5.9 mph /  9.5 km/h 45 % 0 in /  0.0 mm
17:49 82.6 °F /  28.1 °C 59.2 °F /  15.1 °C 30 in /  1015.8 hPa SW 5.8 mph /  9.3 km/h 5.8 mph /  9.3 km/h 45 % 0 in /  0.0 mm
17:54 82.6 °F /  28.1 °C 59.2 °F /  15.1 °C 30 in /  1015.8 hPa SW 8.1 mph /  13.0 km/h 8.1 mph /  13.0 km/h 45 % 0 in /  0.0 mm
17:59 82.6 °F /  28.1 °C 58.5 °F /  14.7 °C 30 in /  1015.8 hPa SW 4.7 mph /  7.6 km/h 4.7 mph /  7.6 km/h 44 % 0 in /  0.0 mm
18:04 83.1 °F /  28.4 °C 59.5 °F /  15.3 °C 30 in /  1014.8 hPa SW 3.5 mph /  5.6 km/h 3.5 mph /  5.6 km/h 45 % 0 in /  0.0 mm
18:09 83.3 °F /  28.5 °C 59.7 °F /  15.4 °C 30 in /  1014.8 hPa WSW 4.7 mph /  7.6 km/h 4.7 mph /  7.6 km/h 45 % 0 in /  0.0 mm
18:14 83.1 °F /  28.4 °C 59.5 °F /  15.3 °C 30 in /  1014.8 hPa SSE 5.8 mph /  9.3 km/h 5.8 mph /  9.3 km/h 45 % 0 in /  0.0 mm
18:19 82.9 °F /  28.3 °C 59.4 °F /  15.2 °C 30 in /  1014.8 hPa West 4.6 mph /  7.4 km/h 4.6 mph /  7.4 km/h 45 % 0 in /  0.0 mm
18:24 82.8 °F /  28.2 °C 58.6 °F /  14.8 °C 30 in /  1014.8 hPa West 3.5 mph /  5.6 km/h 3.5 mph /  5.6 km/h 44 % 0 in /  0.0 mm
18:29 82.6 °F /  28.1 °C 58.5 °F /  14.7 °C 30 in /  1014.8 hPa WSW 3.6 mph /  5.8 km/h 3.6 mph /  5.8 km/h 44 % 0 in /  0.0 mm
18:34 82 °F /  27.8 °C 57.4 °F /  14.1 °C 30 in /  1014.8 hPa North 2.9 mph /  4.7 km/h 2.9 mph /  4.7 km/h 43 % 0 in /  0.0 mm
18:39 81.7 °F /  27.6 °C 57.6 °F /  14.2 °C 30 in /  1014.8 hPa South 3.5 mph /  5.6 km/h 3.5 mph /  5.6 km/h 44 % 0 in /  0.0 mm
18:44 81.3 °F /  27.4 °C 57.4 °F /  14.1 °C 30 in /  1014.8 hPa WSW 4.6 mph /  7.4 km/h 4.6 mph /  7.4 km/h 44 % 0 in /  0.0 mm
18:49 79 °F /  26.1 °C 55.8 °F /  13.2 °C 30 in /  1014.8 hPa SE 6.9 mph /  11.1 km/h 6.9 mph /  11.1 km/h 45 % 0 in /  0.0 mm
18:54 77.9 °F /  25.5 °C 54.9 °F /  12.7 °C 30 in /  1014.8 hPa NE 10.4 mph /  16.7 km/h 10.4 mph /  16.7 km/h 45 % 0 in /  0.0 mm
18:59 77.7 °F /  25.4 °C 55.2 °F /  12.9 °C 30 in /  1014.8 hPa ENE 8.1 mph /  13.0 km/h 8.1 mph /  13.0 km/h 46 % 0 in /  0.0 mm
19:04 77.2 °F /  25.1 °C 54.9 °F /  12.7 °C 29.9 in /  1013.8 hPa NNW 3.5 mph /  5.6 km/h 3.5 mph /  5.6 km/h 46 % 0 in /  0.0 mm
19:09 77.4 °F /  25.2 °C 55.6 °F /  13.1 °C 29.9 in /  1013.8 hPa South 4.6 mph /  7.4 km/h 4.6 mph /  7.4 km/h 47 % 0 in /  0.0 mm
19:14 78.3 °F /  25.7 °C 55.8 °F /  13.2 °C 29.9 in /  1013.8 hPa SW 8.1 mph /  13.0 km/h 8.1 mph /  13.0 km/h 46 % 0 in /  0.0 mm
19:16 78.6 °F /  25.9 °C 56.1 °F /  13.4 °C 29.9 in /  1013.8 hPa WSW 8.1 mph /  13.0 km/h 8.1 mph /  13.0 km/h 46 % 0 in /  0.0 mm
19:20 67.1 °F /  19.5 °C 58.5 °F /  14.7 °C 30.1 in /  1018.8 hPa Calm   1 mph /  1.6 km/h 74 % 0 in /  0.0 mm
19:21 78.4 °F /  25.8 °C 55.9 °F /  13.3 °C 30 in /  1014.8 hPa SW 4.6 mph /  7.4 km/h 4.6 mph /  7.4 km/h 46 % 0 in /  0.0 mm
19:26 78.6 °F /  25.9 °C 56.1 °F /  13.4 °C 30 in /  1014.8 hPa SSW 3.5 mph /  5.6 km/h 3.5 mph /  5.6 km/h 46 % 0 in /  0.0 mm
19:30 66.9 °F /  19.4 °C 58.5 °F /  14.7 °C 30.1 in /  1017.8 hPa Calm     74 % 0 in /  0.0 mm
19:31 78.8 °F /  26.0 °C 56.3 °F /  13.5 °C 30 in /  1014.8 hPa South 3.5 mph /  5.6 km/h 3.5 mph /  5.6 km/h 46 % 0 in /  0.0 mm
19:36 79 °F /  26.1 °C 56.5 °F /  13.6 °C 30 in /  1014.8 hPa WSW 2.3 mph /  3.7 km/h 2.3 mph /  3.7 km/h 46 % 0 in /  0.0 mm
19:40 66.6 °F /  19.2 °C 58.5 °F /  14.7 °C 30.1 in /  1017.8 hPa Calm     75 % 0 in /  0.0 mm
19:41 78.4 °F /  25.8 °C 55.2 °F /  12.9 °C 30 in /  1014.8 hPa South 4.6 mph /  7.4 km/h 4.6 mph /  7.4 km/h 45 % 0 in /  0.0 mm
19:46 77.5 °F /  25.3 °C 55 °F /  12.8 °C 30 in /  1014.8 hPa WSW 2.3 mph /  3.7 km/h 2.3 mph /  3.7 km/h 46 % 0 in /  0.0 mm
19:50 66.6 °F /  19.2 °C 58.5 °F /  14.7 °C 30.1 in /  1017.8 hPa Calm     75 % 0 in /  0.0 mm
19:51 77.7 °F /  25.4 °C 55.2 °F /  12.9 °C 30 in /  1014.8 hPa SSW 3.5 mph /  5.6 km/h 3.5 mph /  5.6 km/h 46 % 0 in /  0.0 mm
19:56 77.9 °F /  25.5 °C 55.6 °F /  13.1 °C 30 in /  1014.8 hPa SW 2.3 mph /  3.7 km/h 2.3 mph /  3.7 km/h 46 % 0 in /  0.0 mm
20:00 66.4 °F /  19.1 °C 58.3 °F /  14.6 °C 30.1 in /  1017.8 hPa Calm     75 % 0 in /  0.0 mm
20:01 77.5 °F /  25.3 °C 55 °F /  12.8 °C 30 in /  1014.8 hPa SW 5.8 mph /  9.3 km/h 5.8 mph /  9.3 km/h 46 % 0 in /  0.0 mm
20:06 77 °F /  25.0 °C 54.7 °F /  12.6 °C 30 in /  1014.8 hPa ESE 2.3 mph /  3.7 km/h 2.3 mph /  3.7 km/h 46 % 0 in /  0.0 mm
20:10 66 °F /  18.9 °C 58.3 °F /  14.6 °C 30.1 in /  1017.8 hPa Calm     76 % 0 in /  0.0 mm
20:11 76.8 °F /  24.9 °C 55 °F /  12.8 °C 30 in /  1014.8 hPa SW 2.9 mph /  4.7 km/h 2.9 mph /  4.7 km/h 47 % 0 in /  0.0 mm
20:16 76.3 °F /  24.6 °C 55.8 °F /  13.2 °C 30 in /  1014.8 hPa NE 2.4 mph /  3.9 km/h 2.9 mph /  4.7 km/h 49 % 0 in /  0.0 mm
20:20 65.8 °F /  18.8 °C 58.5 °F /  14.7 °C 30.1 in /  1017.8 hPa Calm   1 mph /  1.6 km/h 77 % 0 in /  0.0 mm
20:21 75 °F /  23.9 °C 55.8 °F /  13.2 °C 30 in /  1014.8 hPa ENE 5.9 mph /  9.5 km/h 5.9 mph /  9.5 km/h 51 % 0 in /  0.0 mm
20:26 74.3 °F /  23.5 °C 56.7 °F /  13.7 °C 30 in /  1014.8 hPa East 6.9 mph /  11.1 km/h 6.9 mph /  11.1 km/h 54 % 0 in /  0.0 mm
20:30 65.7 °F /  18.7 °C 58.3 °F /  14.6 °C 30.1 in /  1017.8 hPa West 1 mph /  1.6 km/h 2 mph /  3.2 km/h 77 % 0 in /  0.0 mm
20:31 73.9 °F /  23.3 °C 57.4 °F /  14.1 °C 30 in /  1014.8 hPa ENE 4.6 mph /  7.4 km/h 4.6 mph /  7.4 km/h 56 % 0 in /  0.0 mm
20:36 73.8 °F /  23.2 °C 57.6 °F /  14.2 °C 30 in /  1015.8 hPa ESE 3.5 mph /  5.6 km/h 3.5 mph /  5.6 km/h 57 % 0 in /  0.0 mm
20:40 65.3 °F /  18.5 °C 57.9 °F /  14.4 °C 30.1 in /  1017.8 hPa Calm   2 mph /  3.2 km/h 77 % 0 in /  0.0 mm
20:41 73.4 °F /  23.0 °C 57.7 °F /  14.3 °C 30 in /  1015.8 hPa ESE 6.9 mph /  11.1 km/h 6.9 mph /  11.1 km/h 58 % 0 in /  0.0 mm
20:46 72.9 °F /  22.7 °C 58.3 °F /  14.6 °C 30 in /  1015.8 hPa ENE 5.8 mph /  9.3 km/h 5.8 mph /  9.3 km/h 60 % 0 in /  0.0 mm
20:50 65.3 °F /  18.5 °C 58.3 °F /  14.6 °C 30.1 in /  1017.8 hPa Calm   1 mph /  1.6 km/h 78 % 0 in /  0.0 mm
20:51 72.7 °F /  22.6 °C 57.9 °F /  14.4 °C 30 in /  1015.8 hPa East 5.8 mph /  9.3 km/h 5.8 mph /  9.3 km/h 60 % 0 in /  0.0 mm
20:56 72.5 °F /  22.5 °C 58.3 °F /  14.6 °C 30 in /  1015.8 hPa East 4.6 mph /  7.4 km/h 4.6 mph /  7.4 km/h 61 % 0 in /  0.0 mm
21:00 64.9 °F /  18.3 °C 57.6 °F /  14.2 °C 30.1 in /  1017.8 hPa East 1 mph /  1.6 km/h 1 mph /  1.6 km/h 77 % 0 in /  0.0 mm
21:01 72.3 °F /  22.4 °C 58.1 °F /  14.5 °C 30 in /  1015.8 hPa ESE 5.8 mph /  9.3 km/h 5.8 mph /  9.3 km/h 61 % 0 in /  0.0 mm
21:06 72.1 °F /  22.3 °C 58.5 °F /  14.7 °C 30 in /  1015.8 hPa East 3.5 mph /  5.6 km/h 3.5 mph /  5.6 km/h 62 % 0 in /  0.0 mm
21:10 64.2 °F /  17.9 °C 56.8 °F /  13.8 °C 30.1 in /  1017.8 hPa SSW 2 mph /  3.2 km/h 2 mph /  3.2 km/h 77 % 0 in /  0.0 mm
21:11 72 °F /  22.2 °C 58.3 °F /  14.6 °C 30 in /  1015.8 hPa SE 4.6 mph /  7.4 km/h 4.6 mph /  7.4 km/h 62 % 0 in /  0.0 mm
21:16 72 °F /  22.2 °C 58.3 °F /  14.6 °C 30 in /  1015.8 hPa ENE 3.8 mph /  6.1 km/h 3.8 mph /  6.1 km/h 62 % 0 in /  0.0 mm
21:20 64.2 °F /  17.9 °C 57.2 °F /  14.0 °C 30.1 in /  1017.8 hPa WSW 1 mph /  1.6 km/h 1 mph /  1.6 km/h 78 % 0 in /  0.0 mm
21:21 71.6 °F /  22.0 °C 58.3 °F /  14.6 °C 30 in /  1015.8 hPa East 3.5 mph /  5.6 km/h 3.6 mph /  5.8 km/h 63 % 0 in /  0.0 mm
21:26 71.4 °F /  21.9 °C 58.6 °F /  14.8 °C 30 in /  1015.8 hPa ENE 3.6 mph /  5.8 km/h 3.6 mph /  5.8 km/h 64 % 0 in /  0.0 mm
21:30 64 °F /  17.8 °C 57.4 °F /  14.1 °C 30 in /  1016.8 hPa Calm     79 % 0 in /  0.0 mm
21:31 71.2 °F /  21.8 °C 58.8 °F /  14.9 °C 30 in /  1015.8 hPa ESE 3.5 mph /  5.6 km/h 3.5 mph /  5.6 km/h 65 % 0 in /  0.0 mm
21:36 71.1 °F /  21.7 °C 59.2 °F /  15.1 °C 30 in /  1015.8 hPa ENE 3.5 mph /  5.6 km/h 3.5 mph /  5.6 km/h 66 % 0 in /  0.0 mm
21:40 64 °F /  17.8 °C 57.4 °F /  14.1 °C 30.1 in /  1017.8 hPa Calm     79 % 0 in /  0.0 mm
21:41 70.9 °F /  21.6 °C 59 °F /  15.0 °C 30 in /  1015.8 hPa NNE 4.3 mph /  6.9 km/h 4.3 mph /  6.9 km/h 66 % 0 in /  0.0 mm
21:46 70.7 °F /  21.5 °C 59.2 °F /  15.1 °C 30 in /  1015.8 hPa ESE 3.5 mph /  5.6 km/h 3.5 mph /  5.6 km/h 67 % 0 in /  0.0 mm
21:50 64 °F /  17.8 °C 57.4 °F /  14.1 °C 30.1 in /  1017.8 hPa Calm   1 mph /  1.6 km/h 79 % 0 in /  0.0 mm
21:51 70.5 °F /  21.4 °C 59 °F /  15.0 °C 30 in /  1014.8 hPa NE 4.6 mph /  7.4 km/h 4.6 mph /  7.4 km/h 67 % 0 in /  0.0 mm
21:56 70.3 °F /  21.3 °C 58.8 °F /  14.9 °C 30 in /  1014.8 hPa East 4 mph /  6.4 km/h 4 mph /  6.4 km/h 67 % 0 in /  0.0 mm
22:00 63.7 °F /  17.6 °C 57 °F /  13.9 °C 30.1 in /  1017.8 hPa Calm   1 mph /  1.6 km/h 79 % 0 in /  0.0 mm
22:01 70.2 °F /  21.2 °C 59.2 °F /  15.1 °C 30 in /  1014.8 hPa ENE 3.1 mph /  5.0 km/h 3.1 mph /  5.0 km/h 68 % 0 in /  0.0 mm
22:06 70.2 °F /  21.2 °C 59.2 °F /  15.1 °C 30 in /  1015.8 hPa NE 2.6 mph /  4.2 km/h 2.6 mph /  4.2 km/h 68 % 0 in /  0.0 mm
22:10 63.5 °F /  17.5 °C 56.5 °F /  13.6 °C 30.1 in /  1017.8 hPa WSW 2 mph /  3.2 km/h 2 mph /  3.2 km/h 78 % 0 in /  0.0 mm
22:11 70 °F /  21.1 °C 59.4 °F /  15.2 °C 30 in /  1015.8 hPa ENE 4.6 mph /  7.4 km/h 4.6 mph /  7.4 km/h 69 % 0 in /  0.0 mm
22:16 70 °F /  21.1 °C 59.4 °F /  15.2 °C 30 in /  1015.8 hPa NNE 2.4 mph /  3.9 km/h 2.4 mph /  3.9 km/h 69 % 0 in /  0.0 mm
22:20 63.1 °F /  17.3 °C 56.5 °F /  13.6 °C 30.1 in /  1017.8 hPa Calm   1 mph /  1.6 km/h 79 % 0 in /  0.0 mm
22:21 69.8 °F /  21.0 °C 59.2 °F /  15.1 °C 30 in /  1015.8 hPa NNE 2.9 mph /  4.7 km/h 2.9 mph /  4.7 km/h 69 % 0 in /  0.0 mm
22:26 69.6 °F /  20.9 °C 59 °F /  15.0 °C 30 in /  1015.8 hPa NNE 2.4 mph /  3.9 km/h 2.4 mph /  3.9 km/h 69 % 0 in /  0.0 mm
22:30 62.6 °F /  17.0 °C 55.9 °F /  13.3 °C 30.1 in /  1017.8 hPa Calm   2 mph /  3.2 km/h 79 % 0 in /  0.0 mm
22:31 69.6 °F /  20.9 °C 59 °F /  15.0 °C 30 in /  1015.8 hPa NNW 3.5 mph /  5.6 km/h 3.5 mph /  5.6 km/h 69 % 0 in /  0.0 mm
22:36 69.4 °F /  20.8 °C 59.2 °F /  15.1 °C 30 in /  1016.8 hPa North 2.3 mph /  3.7 km/h 2.3 mph /  3.7 km/h 70 % 0 in /  0.0 mm
22:40 62.4 °F /  16.9 °C 56.1 °F /  13.4 °C 30.1 in /  1017.8 hPa SW 2 mph /  3.2 km/h 2 mph /  3.2 km/h 80 % 0 in /  0.0 mm
22:41 69.4 °F /  20.8 °C 59.2 °F /  15.1 °C 30 in /  1016.8 hPa NE 2.3 mph /  3.7 km/h 2.3 mph /  3.7 km/h 70 % 0 in /  0.0 mm
22:46 69.3 °F /  20.7 °C 59.2 °F /  15.1 °C 30 in /  1016.8 hPa NNE 2.4 mph /  3.9 km/h 2.4 mph /  3.9 km/h 70 % 0 in /  0.0 mm
22:50 61.9 °F /  16.6 °C 55.6 °F /  13.1 °C 30.1 in /  1017.8 hPa WSW 2 mph /  3.2 km/h 3 mph /  4.8 km/h 80 % 0 in /  0.0 mm
22:51 69.1 °F /  20.6 °C 58.8 °F /  14.9 °C 30.1 in /  1017.8 hPa NNE 2.4 mph /  3.9 km/h 2.6 mph /  4.2 km/h 70 % 0 in /  0.0 mm
22:56 69.1 °F /  20.6 °C 59.4 °F /  15.2 °C 30.1 in /  1017.8 hPa NNE 3.5 mph /  5.6 km/h 3.5 mph /  5.6 km/h 71 % 0 in /  0.0 mm
23:00 61.7 °F /  16.5 °C 55.8 °F /  13.2 °C 30.1 in /  1017.8 hPa Calm   1 mph /  1.6 km/h 81 % 0 in /  0.0 mm
23:01 68.9 °F /  20.5 °C 59.2 °F /  15.1 °C 30.1 in /  1017.8 hPa NNE 4.6 mph /  7.4 km/h 4.6 mph /  7.4 km/h 71 % 0 in /  0.0 mm
23:06 68.7 °F /  20.4 °C 59.4 °F /  15.2 °C 30.1 in /  1017.8 hPa NE 3.5 mph /  5.6 km/h 3.5 mph /  5.6 km/h 72 % 0 in /  0.0 mm
23:10 61.5 °F /  16.4 °C 55.6 °F /  13.1 °C 30.1 in /  1017.8 hPa SW 1 mph /  1.6 km/h 2 mph /  3.2 km/h 81 % 0 in /  0.0 mm
23:11 68.7 °F /  20.4 °C 59.4 °F /  15.2 °C 30.1 in /  1017.8 hPa NE 2.9 mph /  4.7 km/h 2.9 mph /  4.7 km/h 72 % 0 in /  0.0 mm
23:16 68.5 °F /  20.3 °C 59.2 °F /  15.1 °C 30.1 in /  1017.8 hPa NNE 3.5 mph /  5.6 km/h 3.5 mph /  5.6 km/h 72 % 0 in /  0.0 mm
23:20 61.5 °F /  16.4 °C 55.6 °F /  13.1 °C 30.1 in /  1017.8 hPa SW 1 mph /  1.6 km/h 2 mph /  3.2 km/h 81 % 0 in /  0.0 mm
23:21 68.5 °F /  20.3 °C 59.2 °F /  15.1 °C 30.1 in /  1017.8 hPa NNE 2.3 mph /  3.7 km/h 2.4 mph /  3.9 km/h 72 % 0 in /  0.0 mm
23:26 68.4 °F /  20.2 °C 59 °F /  15.0 °C 30.1 in /  1017.8 hPa NNE 2.3 mph /  3.7 km/h 2.3 mph /  3.7 km/h 72 % 0 in /  0.0 mm
23:30 61.7 °F /  16.5 °C 56.1 °F /  13.4 °C 30.1 in /  1017.8 hPa Calm     82 % 0 in /  0.0 mm
23:31 68.4 °F /  20.2 °C 59 °F /  15.0 °C 30.1 in /  1017.8 hPa NE 2.9 mph /  4.7 km/h 2.9 mph /  4.7 km/h 72 % 0 in /  0.0 mm
23:36 68.2 °F /  20.1 °C 58.8 °F /  14.9 °C 30.1 in /  1017.8 hPa North 2.6 mph /  4.2 km/h 2.6 mph /  4.2 km/h 72 % 0 in /  0.0 mm
23:40 62.1 °F /  16.7 °C 56.5 °F /  13.6 °C 30.1 in /  1017.8 hPa Calm   1 mph /  1.6 km/h 82 % 0 in /  0.0 mm
23:41 68.2 °F /  20.1 °C 58.8 °F /  14.9 °C 30.1 in /  1017.8 hPa NE 3.5 mph /  5.6 km/h 3.5 mph /  5.6 km/h 72 % 0 in /  0.0 mm
23:46 68 °F /  20.0 °C 58.6 °F /  14.8 °C 30.1 in /  1017.8 hPa NNE 1.2 mph /  1.9 km/h   72 % 0 in /  0.0 mm
23:50 62.2 °F /  16.8 °C 56.7 °F /  13.7 °C 30.1 in /  1017.8 hPa Calm     82 % 0 in /  0.0 mm
23:51 67.8 °F /  19.9 °C 58.8 °F /  14.9 °C 30.1 in /  1017.8 hPa NNE 0.9 mph /  1.4 km/h   73 % 0 in /  0.0 mm
23:56 67.6 °F /  19.8 °C 58.6 °F /  14.8 °C 30.1 in /  1017.8 hPa North 2.3 mph /  3.7 km/h 2.3 mph /  3.7 km/h 73 % 0 in /  0.0 mm
Meteo Sesrovires
Elogis d' Weather Underground - 3.75 mb

Guio original per  Jim McMurry - jmcmurry@mwt.net Adaptat per a la plantilla per  Wim van der Kuil - Leuven-Template.eu

Trobareu la nostra informacio del temps tambe a:

Weather Underground

AWEKAS